Terminal Aerodrome Forecast
Issued by NWS

Home | Current Version | Previous Version | Text Only | Print | Product List | Glossary On
Versions: 1 2 3 4 5 6 7 8 9 10 11 12 13 14 15 16 17 18
000
FTUS45 KRIW 151100
TAFCPR
TAF
KCPR 151128Z 1512/1612 23016G26KT P6SM BKN250
     FM151600 23022G32KT P6SM BKN250
     FM160000 25018G30KT P6SM VCSH SCT060 BKN100
     FM160500 35008KT P6SM VCSH SCT035 BKN070
     FM160900 26011KT P6SM SCT100=

USA.gov is the U.S. government's official web portal to all federal, state and local government web resources and services.